createdAt,value
2017-08-22T00:01:33.823Z,102022.42
2017-08-22T00:04:02.177Z,102020.81
2017-08-22T00:06:32.317Z,102015.83
2017-08-22T00:09:01.928Z,102015.59
2017-08-22T00:11:30.289Z,102013.21
2017-08-22T00:13:59.403Z,102014.16
2017-08-22T00:16:28.832Z,102013.73
2017-08-22T00:18:57.649Z,102012.67
2017-08-22T00:21:25.999Z,102009.17
2017-08-22T00:23:54.866Z,102011.68
2017-08-22T00:26:23.193Z,102010.81
2017-08-22T00:28:51.577Z,102013.16
2017-08-22T00:31:20.374Z,102010.59
2017-08-22T00:33:48.732Z,102008.09
2017-08-22T00:36:17.986Z,102017.11
2017-08-22T00:38:47.385Z,102027.20
2017-08-22T00:41:15.740Z,102022.12
2017-08-22T00:43:44.091Z,102022.94
2017-08-22T00:46:12.706Z,102029.97
2017-08-22T00:48:41.121Z,102032.55
2017-08-22T00:51:09.568Z,102028.66
2017-08-22T00:56:18.068Z,102029.95
2017-08-22T00:58:46.458Z,102023.78
2017-08-22T01:01:15.244Z,102028.06
2017-08-22T01:03:43.643Z,102018.14
2017-08-22T01:06:12.205Z,102026.86
2017-08-22T01:08:40.842Z,102023.95
2017-08-22T01:11:09.251Z,102038.97
2017-08-22T01:13:37.913Z,102035.02
2017-08-22T01:16:08.142Z,102032.07
2017-08-22T01:18:36.513Z,102031.06
2017-08-22T01:21:05.670Z,102029.35
2017-08-22T01:23:34.328Z,102032.45
2017-08-22T01:26:02.706Z,102032.00
2017-08-22T01:28:31.102Z,102030.16
2017-08-22T01:31:00.037Z,102030.29
2017-08-22T01:33:28.468Z,102040.30
2017-08-22T01:35:56.851Z,102039.67
2017-08-22T01:38:25.730Z,102027.42
2017-08-22T01:40:54.122Z,102038.47
2017-08-22T01:43:22.531Z,102043.92
2017-08-22T01:45:51.397Z,102036.73
2017-08-22T01:48:19.768Z,102039.95
2017-08-22T01:53:22.175Z,102038.89
2017-08-22T01:55:50.568Z,102043.13
2017-08-22T01:58:18.951Z,102044.89
2017-08-22T02:00:47.853Z,102038.02
2017-08-22T02:03:17.008Z,102038.69
2017-08-22T02:05:45.428Z,102037.03
2017-08-22T02:08:14.107Z,102037.61
2017-08-22T02:10:42.506Z,102035.16
2017-08-22T02:13:11.630Z,102032.92
2017-08-22T02:15:40.319Z,102026.98
2017-08-22T02:18:08.842Z,102023.30
2017-08-22T02:20:37.244Z,102023.80
2017-08-22T02:23:07.200Z,102022.52
2017-08-22T02:25:36.361Z,102019.98
2017-08-22T02:28:04.726Z,102018.35
2017-08-22T02:30:33.389Z,102021.23
2017-08-22T02:33:01.740Z,102023.13
2017-08-22T02:35:30.138Z,102026.25
2017-08-22T02:37:58.862Z,102028.61
2017-08-22T02:40:27.242Z,102022.47
2017-08-22T02:42:55.783Z,102018.55
2017-08-22T02:45:24.668Z,102019.91
2017-08-22T02:47:53.060Z,102018.16
2017-08-22T02:50:21.475Z,102015.55
2017-08-22T02:52:50.870Z,102016.64
2017-08-22T02:55:19.319Z,102018.20
2017-08-22T02:57:47.700Z,102019.41
2017-08-22T03:00:16.453Z,102016.09
2017-08-22T03:02:44.817Z,102014.03
2017-08-22T03:05:13.202Z,102011.73
2017-08-22T03:07:42.162Z,102015.44
2017-08-22T03:10:10.553Z,102007.06
2017-08-22T03:12:38.922Z,102012.63
2017-08-22T03:15:07.881Z,102010.53
2017-08-22T03:17:37.121Z,102015.21
2017-08-22T03:20:05.491Z,102011.55
2017-08-22T03:22:34.293Z,102016.03
2017-08-22T03:25:02.737Z,102021.02
2017-08-22T03:27:31.260Z,102016.30
2017-08-22T03:30:00.062Z,102014.59
2017-08-22T03:32:28.435Z,102018.29
2017-08-22T03:34:56.854Z,102017.39
2017-08-22T03:37:25.680Z,102018.45
2017-08-22T03:39:54.175Z,102016.15
2017-08-22T03:42:22.637Z,102015.87
2017-08-22T03:44:51.411Z,102016.54
2017-08-22T03:47:19.805Z,102014.27
2017-08-22T03:49:48.219Z,102015.05
2017-08-22T03:52:17.308Z,102022.83
2017-08-22T03:54:46.605Z,102021.16
2017-08-22T03:57:15.869Z,102013.66
2017-08-22T03:59:45.103Z,102014.72
2017-08-22T04:02:13.463Z,102018.17
2017-08-22T04:04:41.813Z,102013.28
2017-08-22T04:07:10.896Z,102016.67
2017-08-22T04:09:39.278Z,102017.29
2017-08-22T04:12:07.621Z,102021.78
2017-08-22T04:14:36.749Z,102012.67
2017-08-22T04:17:05.192Z,102013.09
2017-08-22T04:19:33.604Z,102012.09
2017-08-22T04:22:02.272Z,102013.94
2017-08-22T04:24:30.644Z,102016.83
2017-08-22T04:26:59.030Z,102014.86
2017-08-22T04:29:27.805Z,102006.29
2017-08-22T04:31:56.207Z,102003.81
2017-08-22T04:34:24.584Z,101998.39
2017-08-22T04:36:54.093Z,102001.55
2017-08-22T04:39:22.523Z,102008.31
2017-08-22T04:41:51.358Z,102006.44
2017-08-22T04:44:20.143Z,101999.35
2017-08-22T04:46:48.500Z,101996.63
2017-08-22T04:49:16.893Z,101996.36
2017-08-22T04:51:45.692Z,101998.71
2017-08-22T04:54:14.071Z,102000.53
2017-08-22T04:56:43.365Z,101994.73
2017-08-22T04:59:13.374Z,102003.77
2017-08-22T05:01:42.440Z,101997.59
2017-08-22T05:04:10.792Z,102002.05
2017-08-22T05:06:39.448Z,102001.52
2017-08-22T05:09:07.817Z,102000.25
2017-08-22T05:11:36.167Z,102006.80
2017-08-22T05:14:04.921Z,102014.04
2017-08-22T05:16:33.279Z,102011.94
2017-08-22T05:19:02.423Z,102010.08
2017-08-22T05:21:31.895Z,102015.63
2017-08-22T05:24:00.282Z,102018.64
2017-08-22T05:26:28.662Z,102018.61
2017-08-22T05:28:57.446Z,102012.91
2017-08-22T05:31:25.860Z,102014.98
2017-08-22T05:33:54.630Z,102005.25
2017-08-22T05:36:23.380Z,102013.39
2017-08-22T05:38:52.546Z,102015.34
2017-08-22T05:41:20.889Z,102027.68
2017-08-22T05:43:49.896Z,102010.72
2017-08-22T05:46:18.329Z,102005.39
2017-08-22T05:48:46.714Z,102010.20
2017-08-22T05:51:15.413Z,102014.00
2017-08-22T05:53:43.744Z,102012.70
2017-08-22T05:56:12.081Z,102011.35
2017-08-22T05:58:41.679Z,102012.02
2017-08-22T06:01:10.224Z,102014.24
2017-08-22T06:03:38.613Z,102017.34
2017-08-22T06:06:08.367Z,102005.72
2017-08-22T06:08:36.717Z,102010.23
2017-08-22T06:11:05.089Z,102014.33
2017-08-22T06:13:33.716Z,102008.38
2017-08-22T06:16:02.106Z,102003.68
2017-08-22T06:18:30.468Z,102001.72
2017-08-22T06:20:59.661Z,102003.03
2017-08-22T06:23:28.093Z,101999.96
2017-08-22T06:25:56.451Z,102006.11
2017-08-22T06:28:25.583Z,102005.84
2017-08-22T06:30:53.995Z,102003.23
2017-08-22T06:33:23.010Z,102009.83
2017-08-22T06:35:51.675Z,102013.33
2017-08-22T06:38:20.021Z,102012.54
2017-08-22T06:40:48.590Z,102010.64
2017-08-22T06:43:17.250Z,102016.63
2017-08-22T06:45:45.658Z,102018.61
2017-08-22T06:48:14.013Z,102015.55
2017-08-22T06:50:42.859Z,102015.61
2017-08-22T06:53:11.199Z,102017.51
2017-08-22T06:55:39.542Z,102016.53
2017-08-22T06:58:08.324Z,102011.91
2017-08-22T07:00:36.675Z,102018.06
2017-08-22T07:03:05.034Z,102014.41
2017-08-22T07:05:33.768Z,102011.84
2017-08-22T07:08:02.121Z,102020.45
2017-08-22T07:10:31.291Z,102021.67
2017-08-22T07:13:00.160Z,102017.50
2017-08-22T07:15:28.566Z,102022.00
2017-08-22T07:17:56.968Z,102019.08
2017-08-22T07:20:25.884Z,102023.17
2017-08-22T07:22:54.261Z,102019.61
2017-08-22T07:25:22.590Z,102014.11
2017-08-22T07:27:52.128Z,102021.40
2017-08-22T07:30:21.251Z,102015.02
2017-08-22T07:32:49.589Z,102005.88
2017-08-22T07:35:18.278Z,102007.47
2017-08-22T07:37:46.619Z,102016.77
2017-08-22T07:40:14.981Z,102016.42
2017-08-22T07:42:43.856Z,102016.06
2017-08-22T07:45:12.211Z,102023.14
2017-08-22T07:47:41.329Z,102022.12
2017-08-22T07:50:10.079Z,102023.47
2017-08-22T07:52:39.249Z,102020.80
2017-08-22T07:55:07.581Z,102031.53
2017-08-22T07:57:38.052Z,102025.59
2017-08-22T08:00:07.094Z,102029.73
2017-08-22T08:02:35.508Z,102022.83
2017-08-22T08:05:04.152Z,102029.31
2017-08-22T08:07:32.505Z,102021.42
2017-08-22T08:10:00.860Z,102025.26
2017-08-22T08:12:29.525Z,102019.80
2017-08-22T08:14:57.884Z,102022.91
2017-08-22T08:17:27.000Z,102023.11
2017-08-22T08:19:56.016Z,102014.33
2017-08-22T08:22:24.389Z,102017.14
2017-08-22T08:24:52.731Z,102032.72
2017-08-22T08:27:21.644Z,102019.72
2017-08-22T08:29:50.032Z,102027.45
2017-08-22T08:32:18.482Z,102022.14
2017-08-22T08:34:47.911Z,102024.92
2017-08-22T08:37:16.266Z,102026.94
2017-08-22T08:39:44.671Z,102025.08
2017-08-22T08:42:13.746Z,102028.42
2017-08-22T08:44:42.115Z,102028.68
2017-08-22T08:47:11.368Z,102029.19
2017-08-22T08:49:40.698Z,102025.12
2017-08-22T08:52:09.070Z,102026.88
2017-08-22T08:54:37.439Z,102029.41
2017-08-22T08:57:06.176Z,102026.96
2017-08-22T08:59:34.543Z,102014.11
2017-08-22T09:02:02.906Z,102023.55
2017-08-22T09:04:31.641Z,102020.05
2017-08-22T09:07:00.035Z,102023.94
2017-08-22T09:09:28.367Z,102023.33
2017-08-22T09:11:57.901Z,102016.71
2017-08-22T09:14:27.039Z,102014.52
2017-08-22T09:16:55.445Z,102012.25
2017-08-22T09:19:24.093Z,102013.45
2017-08-22T09:21:52.454Z,102013.55
2017-08-22T09:24:21.370Z,102009.84
2017-08-22T09:26:50.738Z,102005.87
2017-08-22T09:29:19.122Z,102008.01
2017-08-22T09:31:47.499Z,102003.92
2017-08-22T09:34:16.210Z,102011.41
2017-08-22T09:36:44.580Z,102014.93
2017-08-22T09:39:12.939Z,102016.91
2017-08-22T09:41:42.474Z,102010.59
2017-08-22T09:44:10.820Z,102010.13
2017-08-22T09:46:39.158Z,102013.17
2017-08-22T09:49:08.077Z,102008.36
2017-08-22T09:51:36.492Z,102003.45
2017-08-22T09:54:04.896Z,102001.81
2017-08-22T09:56:33.848Z,101997.72
2017-08-22T09:59:02.284Z,101996.42
2017-08-22T10:01:30.651Z,102005.40
2017-08-22T10:03:59.324Z,102001.84
2017-08-22T10:06:27.708Z,101995.77
2017-08-22T10:08:56.095Z,102000.77
2017-08-22T10:11:24.895Z,102002.62
2017-08-22T10:13:53.892Z,101999.86
2017-08-22T10:16:22.241Z,101994.44
2017-08-22T10:18:50.931Z,102004.42
2017-08-22T10:21:19.406Z,102001.05
2017-08-22T10:23:47.771Z,102002.96
2017-08-22T10:26:16.442Z,102004.87
2017-08-22T10:28:44.777Z,101993.47
2017-08-22T10:31:13.126Z,102003.26
2017-08-22T10:33:41.920Z,101994.41
2017-08-22T10:36:10.309Z,101999.03
2017-08-22T10:38:38.672Z,101993.02
2017-08-22T10:41:07.453Z,101989.48
2017-08-22T10:43:35.876Z,101978.97
2017-08-22T10:46:04.244Z,101973.81
2017-08-22T10:48:33.028Z,101978.45
2017-08-22T10:51:01.369Z,101974.33
2017-08-22T10:53:29.704Z,101973.45
2017-08-22T10:55:58.513Z,101968.30
2017-08-22T10:58:26.862Z,101965.87
2017-08-22T11:00:55.204Z,101966.41
2017-08-22T11:03:23.849Z,101959.70
2017-08-22T11:05:52.957Z,101963.40
2017-08-22T11:08:21.315Z,101960.70
2017-08-22T11:10:51.051Z,101959.55
2017-08-22T11:13:20.193Z,101962.23
2017-08-22T11:15:48.542Z,101948.09
2017-08-22T11:18:17.531Z,101953.88
2017-08-22T11:20:45.890Z,101943.11
2017-08-22T11:23:15.015Z,101949.02
2017-08-22T11:25:43.635Z,101943.48
2017-08-22T11:28:11.992Z,101942.48
2017-08-22T11:30:40.325Z,101947.11
2017-08-22T11:33:09.020Z,101942.70
2017-08-22T11:35:37.389Z,101943.09
2017-08-22T11:38:06.499Z,101934.94
2017-08-22T11:40:35.230Z,101947.19
2017-08-22T11:43:04.001Z,101937.33
2017-08-22T11:45:32.370Z,101941.47
2017-08-22T11:48:01.153Z,101934.75
2017-08-22T11:50:29.483Z,101935.11
2017-08-22T11:52:57.823Z,101938.91
2017-08-22T11:55:26.588Z,101937.48
2017-08-22T11:57:56.390Z,101940.77
2017-08-22T12:00:26.342Z,101945.27
2017-08-22T12:02:55.517Z,101947.36
2017-08-22T12:05:23.884Z,101938.78
2017-08-22T12:07:53.004Z,101937.32
2017-08-22T12:10:22.589Z,101932.91
2017-08-22T12:12:51.722Z,101935.57
2017-08-22T12:15:20.068Z,101942.56
2017-08-22T12:17:48.774Z,101929.38
2017-08-22T12:20:17.126Z,101933.04
2017-08-22T12:22:45.478Z,101936.64
2017-08-22T12:25:14.761Z,101930.86
2017-08-22T12:27:43.112Z,101930.81
2017-08-22T12:30:11.462Z,101933.92
2017-08-22T12:32:40.413Z,101937.52
2017-08-22T12:35:08.823Z,101933.86
2017-08-22T12:37:37.195Z,101929.83
2017-08-22T12:40:06.052Z,101935.02
2017-08-22T12:42:34.401Z,101928.22
2017-08-22T12:45:03.518Z,101924.82
2017-08-22T12:47:33.343Z,101919.70
2017-08-22T12:50:01.707Z,101927.95
2017-08-22T12:52:30.062Z,101924.45
2017-08-22T12:54:59.460Z,101922.34
2017-08-22T12:57:29.301Z,101915.12
2017-08-22T12:59:57.650Z,101925.94
2017-08-22T13:02:26.492Z,101924.11
2017-08-22T13:04:54.892Z,101923.95
2017-08-22T13:07:23.270Z,101925.69
2017-08-22T13:09:52.119Z,101931.63
2017-08-22T13:12:20.659Z,101924.14
2017-08-22T13:14:48.995Z,101927.34
2017-08-22T13:17:17.633Z,101915.77
2017-08-22T13:19:46.769Z,101918.73
2017-08-22T13:22:15.106Z,101925.75
2017-08-22T13:24:44.847Z,101913.91
2017-08-22T13:27:13.702Z,101916.36
2017-08-22T13:29:42.026Z,101918.72
2017-08-22T13:32:10.797Z,101918.76
2017-08-22T13:34:39.143Z,101913.77
2017-08-22T13:37:07.486Z,101905.38
2017-08-22T13:39:36.395Z,101907.27
2017-08-22T13:42:04.787Z,101913.14
2017-08-22T13:44:33.317Z,101906.59
2017-08-22T13:47:02.119Z,101902.19
2017-08-22T13:49:30.473Z,101895.91
2017-08-22T13:51:58.815Z,101901.93
2017-08-22T13:54:27.997Z,101901.14
2017-08-22T13:56:57.023Z,101899.05
2017-08-22T13:59:25.366Z,101894.39
2017-08-22T14:01:54.024Z,101893.16
2017-08-22T14:04:22.385Z,101895.09
2017-08-22T14:06:50.728Z,101885.38
2017-08-22T14:09:19.371Z,101880.64
2017-08-22T14:11:47.723Z,101889.89
2017-08-22T14:14:16.196Z,101889.88
2017-08-22T14:16:45.414Z,101891.27
2017-08-22T14:19:13.761Z,101895.53
2017-08-22T14:21:42.112Z,101888.52
2017-08-22T14:24:10.771Z,101890.25
2017-08-22T14:26:39.126Z,101890.63
2017-08-22T14:29:08.012Z,101885.80
2017-08-22T14:31:36.907Z,101894.83
2017-08-22T14:34:05.259Z,101893.33
2017-08-22T14:36:33.677Z,101898.70
2017-08-22T14:39:02.554Z,101897.36
2017-08-22T14:41:31.687Z,101891.27
2017-08-22T14:44:00.051Z,101891.11
2017-08-22T14:46:29.764Z,101894.03
2017-08-22T14:48:58.871Z,101883.89
2017-08-22T14:51:27.236Z,101884.72
2017-08-22T14:53:56.977Z,101878.75
2017-08-22T14:56:25.330Z,101875.94
2017-08-22T14:58:54.370Z,101882.94
2017-08-22T15:01:23.228Z,101887.34
2017-08-22T15:03:51.585Z,101882.98
2017-08-22T15:06:19.937Z,101885.19
2017-08-22T15:08:48.635Z,101884.05
2017-08-22T15:11:17.003Z,101875.49
2017-08-22T15:13:45.348Z,101882.38
2017-08-22T15:16:13.963Z,101883.66
2017-08-22T15:18:43.838Z,101878.37
2017-08-22T15:21:12.239Z,101883.58
2017-08-22T15:23:41.416Z,101878.47
2017-08-22T15:26:09.820Z,101871.83
2017-08-22T15:28:38.184Z,101866.12
2017-08-22T15:31:06.862Z,101861.44
2017-08-22T15:33:35.221Z,101867.41
2017-08-22T15:36:04.040Z,101867.56
2017-08-22T15:38:32.771Z,101869.55
2017-08-22T15:41:01.131Z,101867.53
2017-08-22T15:43:29.503Z,101872.23
2017-08-22T15:45:58.352Z,101864.89
2017-08-22T15:48:26.728Z,101869.38
2017-08-22T15:50:55.105Z,101867.13
2017-08-22T15:53:24.002Z,101868.70
2017-08-22T15:55:52.381Z,101868.02
2017-08-22T15:58:20.980Z,101867.87
2017-08-22T16:00:50.464Z,101863.97
2017-08-22T16:03:18.862Z,101863.88
2017-08-22T16:05:47.264Z,101858.66
2017-08-22T16:08:16.349Z,101854.08
2017-08-22T16:10:45.619Z,101863.91
2017-08-22T16:13:14.672Z,101857.56
2017-08-22T16:15:44.075Z,101858.61
2017-08-22T16:18:13.111Z,101866.44
2017-08-22T16:20:41.437Z,101861.27
2017-08-22T16:23:10.277Z,101852.77
2017-08-22T16:25:38.632Z,101854.53
2017-08-22T16:28:07.750Z,101858.23
2017-08-22T16:30:36.935Z,101850.47
2017-08-22T16:33:05.287Z,101848.01
2017-08-22T16:35:33.650Z,101841.34
2017-08-22T16:38:02.402Z,101855.09
2017-08-22T16:40:30.881Z,101858.66
2017-08-22T16:42:59.307Z,101857.05
2017-08-22T16:45:28.120Z,101862.92
2017-08-22T16:47:56.490Z,101853.69
2017-08-22T16:50:24.838Z,101854.81
2017-08-22T16:52:53.642Z,101861.44
2017-08-22T16:55:21.996Z,101864.77
2017-08-22T16:57:50.331Z,101868.64
2017-08-22T17:00:19.141Z,101873.54
2017-08-22T17:02:47.509Z,101867.68
2017-08-22T17:05:15.887Z,101867.22
2017-08-22T17:07:44.638Z,101865.44
2017-08-22T17:10:13.279Z,101866.66
2017-08-22T17:12:41.658Z,101873.42
2017-08-22T17:15:10.668Z,101875.33
2017-08-22T17:17:39.015Z,101865.86
2017-08-22T17:20:08.168Z,101871.34
2017-08-22T17:22:36.938Z,101868.91
2017-08-22T17:25:05.293Z,101870.61
2017-08-22T17:27:33.686Z,101871.80
2017-08-22T17:30:02.340Z,101866.06
2017-08-22T17:32:31.564Z,101869.27
2017-08-22T17:34:59.903Z,101872.33
2017-08-22T17:37:28.835Z,101865.86
2017-08-22T17:39:57.199Z,101868.30
2017-08-22T17:42:25.538Z,101869.05
2017-08-22T17:44:54.278Z,101866.28
2017-08-22T17:47:22.617Z,101861.50
2017-08-22T17:49:50.960Z,101861.50
2017-08-22T17:52:19.617Z,101866.38
2017-08-22T17:54:47.959Z,101869.77
2017-08-22T17:57:16.331Z,101872.26
2017-08-22T17:59:45.414Z,101872.58
2017-08-22T18:02:13.774Z,101868.11
2017-08-22T18:04:42.940Z,101864.78
2017-08-22T18:07:12.363Z,101873.23
2017-08-22T18:09:40.729Z,101872.67
2017-08-22T18:12:09.085Z,101868.81
2017-08-22T18:14:38.521Z,101868.88
2017-08-22T18:17:06.850Z,101875.38
2017-08-22T18:19:35.237Z,101880.48
2017-08-22T18:22:04.243Z,101875.42
2017-08-22T18:24:32.589Z,101876.73
2017-08-22T18:27:00.964Z,101873.84
2017-08-22T18:29:29.681Z,101875.67
2017-08-22T18:31:58.159Z,101881.17
2017-08-22T18:34:27.256Z,101884.70
2017-08-22T18:36:56.908Z,101878.57
2017-08-22T18:39:25.248Z,101879.32
2017-08-22T18:41:54.339Z,101882.06
2017-08-22T18:44:23.895Z,101874.02
2017-08-22T18:46:53.149Z,101877.70
2017-08-22T18:49:21.704Z,101884.03
2017-08-22T18:51:50.457Z,101883.02
2017-08-22T18:54:18.886Z,101882.39
2017-08-22T18:56:47.261Z,101887.20
2017-08-22T18:59:16.297Z,101882.78
2017-08-22T19:01:44.680Z,101887.27
2017-08-22T19:04:13.033Z,101887.00
2017-08-22T19:06:41.848Z,101890.99
2017-08-22T19:09:10.226Z,101882.62
2017-08-22T19:11:39.494Z,101882.72
2017-08-22T19:14:08.436Z,101879.41
2017-08-22T19:16:36.805Z,101876.30
2017-08-22T19:19:05.190Z,101875.62
2017-08-22T19:21:34.020Z,101874.67
2017-08-22T19:24:02.636Z,101868.07
2017-08-22T19:26:32.182Z,101864.14
2017-08-22T19:29:01.032Z,101873.00
2017-08-22T19:31:30.154Z,101882.17
2017-08-22T19:33:58.480Z,101878.98
2017-08-22T19:36:27.090Z,101870.12
2017-08-22T19:38:55.453Z,101873.62
2017-08-22T19:41:23.796Z,101880.31
2017-08-22T19:43:52.445Z,101873.40
2017-08-22T19:46:20.794Z,101872.74
2017-08-22T19:48:49.168Z,101869.67
2017-08-22T19:51:18.175Z,101870.95
2017-08-22T19:53:47.141Z,101872.74
2017-08-22T19:56:15.485Z,101873.92
2017-08-22T19:58:44.366Z,101876.81
2017-08-22T20:01:12.725Z,101879.75
2017-08-22T20:03:41.840Z,101880.36
2017-08-22T20:06:11.263Z,101880.02
2017-08-22T20:08:39.619Z,101876.39
2017-08-22T20:11:07.951Z,101878.94
2017-08-22T20:13:37.518Z,101882.04
2017-08-22T20:16:05.889Z,101872.83
2017-08-22T20:18:34.267Z,101876.75
2017-08-22T20:21:02.963Z,101880.67
2017-08-22T20:23:32.198Z,101879.40
2017-08-22T20:26:01.359Z,101882.97
2017-08-22T20:28:30.248Z,101872.70
2017-08-22T20:30:58.593Z,101870.33
2017-08-22T20:33:26.947Z,101877.34
2017-08-22T20:35:56.105Z,101877.76
2017-08-22T20:38:24.474Z,101888.16
2017-08-22T20:40:52.813Z,101881.86
2017-08-22T20:43:21.576Z,101879.98
2017-08-22T20:45:49.919Z,101885.05
2017-08-22T20:48:18.249Z,101883.89
2017-08-22T20:50:47.007Z,101884.95
2017-08-22T20:53:15.355Z,101889.82
2017-08-22T20:55:43.728Z,101890.33
2017-08-22T20:58:13.495Z,101879.97
2017-08-22T21:00:42.629Z,101876.36
2017-08-22T21:03:10.975Z,101885.14
2017-08-22T21:05:39.720Z,101881.75
2017-08-22T21:08:08.068Z,101890.64
2017-08-22T21:10:36.435Z,101883.19
2017-08-22T21:13:05.292Z,101878.75
2017-08-22T21:15:34.374Z,101878.70
2017-08-22T21:18:02.829Z,101881.19
2017-08-22T21:20:31.645Z,101869.14
2017-08-22T21:23:00.022Z,101874.17
2017-08-22T21:25:28.418Z,101878.53
2017-08-22T21:27:57.309Z,101875.55
2017-08-22T21:30:25.638Z,101877.53
2017-08-22T21:32:53.982Z,101875.66
2017-08-22T21:35:22.752Z,101873.86
2017-08-22T21:37:51.116Z,101876.86
2017-08-22T21:40:19.461Z,101874.03
2017-08-22T21:42:48.584Z,101869.42
2017-08-22T21:45:16.931Z,101865.50
2017-08-22T21:47:45.278Z,101860.03
2017-08-22T21:50:14.235Z,101865.84
2017-08-22T21:52:42.656Z,101864.98
2017-08-22T21:55:11.006Z,101863.70
2017-08-22T21:57:40.699Z,101861.57
2017-08-22T22:00:10.591Z,101868.30
2017-08-22T22:02:38.954Z,101865.91
2017-08-22T22:05:07.784Z,101874.28
2017-08-22T22:07:36.134Z,101863.28
2017-08-22T22:10:05.195Z,101863.63
2017-08-22T22:12:33.896Z,101870.36
2017-08-22T22:15:02.271Z,101860.63
2017-08-22T22:17:30.648Z,101868.83
2017-08-22T22:20:00.733Z,101870.78
2017-08-22T22:22:29.084Z,101866.51
2017-08-22T22:24:58.213Z,101868.29
2017-08-22T22:27:27.775Z,101867.17
2017-08-22T22:29:56.139Z,101868.02
2017-08-22T22:32:24.476Z,101868.23
2017-08-22T22:34:53.236Z,101868.06
2017-08-22T22:37:21.624Z,101863.31
2017-08-22T22:39:49.977Z,101866.91
2017-08-22T22:42:18.918Z,101861.39
2017-08-22T22:44:47.963Z,101855.53
2017-08-22T22:47:16.616Z,101861.26
2017-08-22T22:49:45.594Z,101860.70
2017-08-22T22:52:14.082Z,101857.29
2017-08-22T22:54:42.434Z,101863.11
2017-08-22T22:57:11.099Z,101858.39
2017-08-22T22:59:39.457Z,101855.34
2017-08-22T23:02:07.806Z,101861.55
2017-08-22T23:04:36.700Z,101855.16
2017-08-22T23:07:05.056Z,101855.84
2017-08-22T23:09:33.423Z,101857.96
2017-08-22T23:12:02.967Z,101854.44
2017-08-22T23:14:31.365Z,101855.17
2017-08-22T23:17:01.286Z,101852.45
2017-08-22T23:19:29.969Z,101851.68
2017-08-22T23:21:58.356Z,101856.38
2017-08-22T23:24:26.726Z,101858.67
2017-08-22T23:26:55.400Z,101851.95
2017-08-22T23:29:23.760Z,101853.32
2017-08-22T23:31:52.891Z,101849.82
2017-08-22T23:34:21.836Z,101849.75
2017-08-22T23:36:50.204Z,101851.84
2017-08-22T23:39:18.584Z,101849.23
2017-08-22T23:41:47.378Z,101856.96
2017-08-22T23:44:15.727Z,101843.27
2017-08-22T23:46:44.061Z,101843.98
2017-08-22T23:49:12.805Z,101843.80
2017-08-22T23:51:41.149Z,101842.33
2017-08-22T23:54:09.499Z,101846.59
2017-08-22T23:56:38.493Z,101844.78
2017-08-22T23:59:06.872Z,101849.28
